createdAt,value
2019-02-18T00:00:59.590Z,45.20
2019-02-18T00:02:12.822Z,45.30
2019-02-18T00:03:26.049Z,45.60
2019-02-18T00:04:39.277Z,46.20
2019-02-18T00:05:52.493Z,46.40
2019-02-18T00:07:14.172Z,46.60
2019-02-18T00:08:20.675Z,46.90
2019-02-18T00:09:33.890Z,47.00
2019-02-18T00:10:47.110Z,47.30
2019-02-18T00:12:00.369Z,47.50
2019-02-18T00:13:13.601Z,47.60
2019-02-18T00:14:27.085Z,47.50
2019-02-18T00:15:40.302Z,47.50
2019-02-18T00:16:53.530Z,47.70
2019-02-18T00:18:06.770Z,47.60
2019-02-18T00:19:19.993Z,47.90
2019-02-18T00:20:33.228Z,48.10
2019-02-18T00:21:46.436Z,47.90
2019-02-18T00:22:59.656Z,48.10
2019-02-18T00:24:12.887Z,48.20
2019-02-18T00:25:26.102Z,47.90
2019-02-18T00:26:39.322Z,48.20
2019-02-18T00:27:52.538Z,47.80
2019-02-18T00:29:05.776Z,47.80
2019-02-18T00:30:19.719Z,48.00
2019-02-18T00:31:32.942Z,48.70
2019-02-18T00:32:46.167Z,49.40
2019-02-18T00:33:59.405Z,49.30
2019-02-18T00:35:12.641Z,49.70
2019-02-18T00:36:25.865Z,50.00
2019-02-18T00:37:39.091Z,49.60
2019-02-18T00:38:52.314Z,50.10
2019-02-18T00:40:07.885Z,50.30
2019-02-18T00:41:21.104Z,50.30
2019-02-18T00:42:35.046Z,50.60
2019-02-18T00:43:48.274Z,50.50
2019-02-18T00:45:01.496Z,50.30
2019-02-18T00:46:14.721Z,50.10
2019-02-18T00:47:27.962Z,50.10
2019-02-18T00:48:41.233Z,49.60
2019-02-18T00:49:54.461Z,49.30
2019-02-18T00:51:07.699Z,49.10
2019-02-18T00:52:20.924Z,48.80
2019-02-18T00:53:34.141Z,48.70
2019-02-18T00:54:47.370Z,48.70
2019-02-18T00:56:00.615Z,48.80
2019-02-18T00:57:13.837Z,49.20
2019-02-18T00:58:27.053Z,48.60
2019-02-18T00:59:40.278Z,49.50
2019-02-18T01:00:55.138Z,49.90
2019-02-18T01:02:08.374Z,50.10
2019-02-18T01:03:21.626Z,49.90
2019-02-18T01:04:34.846Z,49.90
2019-02-18T01:05:48.060Z,50.60
2019-02-18T01:07:01.294Z,50.40
2019-02-18T01:08:14.517Z,50.90
2019-02-18T01:09:27.742Z,50.70
2019-02-18T01:10:40.970Z,50.60
2019-02-18T01:11:54.187Z,51.30
2019-02-18T01:13:07.430Z,51.50
2019-02-18T01:14:20.641Z,51.50
2019-02-18T01:15:33.878Z,51.60
2019-02-18T01:16:47.093Z,50.50
2019-02-18T01:18:00.318Z,49.90
2019-02-18T01:19:13.550Z,49.10
2019-02-18T01:20:26.774Z,49.10
2019-02-18T01:21:39.994Z,49.50
2019-02-18T01:22:53.214Z,49.80
2019-02-18T01:24:06.446Z,49.70
2019-02-18T01:25:19.661Z,49.30
2019-02-18T01:26:32.882Z,49.70
2019-02-18T01:27:46.098Z,50.40
2019-02-18T01:28:59.377Z,49.80
2019-02-18T01:30:16.195Z,50.10
2019-02-18T01:31:30.676Z,50.40
2019-02-18T01:32:43.906Z,50.50
2019-02-18T01:33:57.121Z,50.40
2019-02-18T01:35:10.363Z,50.70
2019-02-18T01:36:23.595Z,50.80
2019-02-18T01:37:45.366Z,50.90
2019-02-18T01:38:51.745Z,50.80
2019-02-18T01:40:07.809Z,51.10
2019-02-18T01:41:21.045Z,51.10
2019-02-18T01:42:34.261Z,51.40
2019-02-18T01:43:47.483Z,51.30
2019-02-18T01:45:00.701Z,51.60
2019-02-18T01:46:13.928Z,51.80
2019-02-18T01:47:27.161Z,51.70
2019-02-18T01:48:40.378Z,51.80
2019-02-18T01:49:53.601Z,51.80
2019-02-18T01:51:06.833Z,52.00
2019-02-18T01:52:20.050Z,52.10
2019-02-18T01:53:33.273Z,53.30
2019-02-18T01:54:46.501Z,52.80
2019-02-18T01:55:59.717Z,52.50
2019-02-18T01:57:12.938Z,52.30
2019-02-18T01:58:26.178Z,52.40
2019-02-18T01:59:39.409Z,53.40
2019-02-18T02:00:52.634Z,53.70
2019-02-18T02:02:06.106Z,53.80
2019-02-18T02:03:19.335Z,54.00
2019-02-18T02:04:32.610Z,53.80
2019-02-18T02:05:45.875Z,53.80
2019-02-18T02:06:59.110Z,54.10
2019-02-18T02:08:12.323Z,53.80
2019-02-18T02:09:25.559Z,54.30
2019-02-18T02:10:38.786Z,55.10
2019-02-18T02:11:52.077Z,55.60
2019-02-18T02:13:28.066Z,55.50
2019-02-18T02:14:41.306Z,55.20
2019-02-18T02:15:54.590Z,55.50
2019-02-18T02:17:07.821Z,55.80
2019-02-18T02:18:21.041Z,56.50
2019-02-18T02:19:34.263Z,56.40
2019-02-18T02:20:47.952Z,56.70
2019-02-18T02:22:01.180Z,56.50
2019-02-18T02:23:14.397Z,56.90
2019-02-18T02:24:27.626Z,56.90
2019-02-18T02:25:40.903Z,56.60
2019-02-18T02:26:54.149Z,57.00
2019-02-18T02:28:07.424Z,57.30
2019-02-18T02:29:20.690Z,57.30
2019-02-18T02:30:33.916Z,57.30
2019-02-18T02:31:47.141Z,57.50
2019-02-18T02:33:00.377Z,57.60
2019-02-18T02:34:13.611Z,57.90
2019-02-18T02:35:26.839Z,57.70
2019-02-18T02:36:40.309Z,57.90
2019-02-18T02:37:53.534Z,58.70
2019-02-18T02:39:06.842Z,58.20
2019-02-18T02:40:21.325Z,58.30
2019-02-18T02:41:34.548Z,58.60
2019-02-18T02:42:47.783Z,58.40
2019-02-18T02:44:01.242Z,58.60
2019-02-18T02:45:14.460Z,58.70
2019-02-18T02:46:27.673Z,58.80
2019-02-18T02:47:40.903Z,58.50
2019-02-18T02:48:54.133Z,58.60
2019-02-18T02:50:07.797Z,58.50
2019-02-18T02:51:21.769Z,58.30
2019-02-18T02:52:34.986Z,58.30
2019-02-18T02:53:48.218Z,58.40
2019-02-18T02:55:01.445Z,58.10
2019-02-18T02:56:14.666Z,57.90
2019-02-18T02:57:27.886Z,57.90
2019-02-18T02:58:41.124Z,57.90
2019-02-18T02:59:54.347Z,58.10
2019-02-18T03:01:07.572Z,58.20
2019-02-18T03:02:20.802Z,58.20
2019-02-18T03:03:34.030Z,58.10
2019-02-18T03:04:47.248Z,58.40
2019-02-18T03:06:00.470Z,58.40
2019-02-18T03:07:14.162Z,58.80
2019-02-18T03:08:27.384Z,58.80
2019-02-18T03:09:40.601Z,58.80
2019-02-18T03:10:53.841Z,59.40
2019-02-18T03:12:07.068Z,59.40
2019-02-18T03:13:20.295Z,59.50
2019-02-18T03:14:33.520Z,59.80
2019-02-18T03:15:46.749Z,59.70
2019-02-18T03:16:59.975Z,59.70
2019-02-18T03:18:13.208Z,59.90
2019-02-18T03:19:26.430Z,60.10
2019-02-18T03:20:39.653Z,60.10
2019-02-18T03:21:52.887Z,60.20
2019-02-18T03:23:06.121Z,60.90
2019-02-18T03:24:19.354Z,61.20
2019-02-18T03:25:32.854Z,61.70
2019-02-18T03:26:46.548Z,61.20
2019-02-18T03:28:29.326Z,61.80
2019-02-18T03:29:54.377Z,62.10
2019-02-18T03:31:13.524Z,62.70
2019-02-18T03:32:26.754Z,63.00
2019-02-18T03:33:48.772Z,63.20
2019-02-18T03:35:02.036Z,62.50
2019-02-18T03:36:15.258Z,62.30
2019-02-18T03:37:28.485Z,61.50
2019-02-18T03:38:41.718Z,61.40
2019-02-18T03:39:54.943Z,61.20
2019-02-18T03:41:08.160Z,61.10
2019-02-18T03:42:21.381Z,61.10
2019-02-18T03:43:34.611Z,61.20
2019-02-18T03:44:47.841Z,61.50
2019-02-18T03:46:01.075Z,61.50
2019-02-18T03:47:14.301Z,61.60
2019-02-18T03:48:27.520Z,61.50
2019-02-18T03:49:40.749Z,61.80
2019-02-18T03:50:53.997Z,61.60
2019-02-18T03:52:07.205Z,61.50
2019-02-18T03:53:20.422Z,61.70
2019-02-18T03:54:33.728Z,61.80
2019-02-18T03:55:47.026Z,61.60
2019-02-18T03:57:00.243Z,61.50
2019-02-18T03:58:13.457Z,61.60
2019-02-18T03:59:26.684Z,62.20
2019-02-18T04:00:39.901Z,61.80
2019-02-18T04:01:53.131Z,61.50
2019-02-18T04:03:06.351Z,61.90
2019-02-18T04:04:19.570Z,61.50
2019-02-18T04:05:32.794Z,61.50
2019-02-18T04:06:46.009Z,61.20
2019-02-18T04:07:59.254Z,60.60
2019-02-18T04:09:12.478Z,60.20
2019-02-18T04:10:25.702Z,60.10
2019-02-18T04:11:38.926Z,60.50
2019-02-18T04:12:52.146Z,60.70
2019-02-18T04:14:05.377Z,60.50
2019-02-18T04:15:18.675Z,61.30
2019-02-18T04:16:31.887Z,60.90
2019-02-18T04:17:45.106Z,62.10
2019-02-18T04:18:58.371Z,61.70
2019-02-18T04:20:11.584Z,61.70
2019-02-18T04:21:24.798Z,62.10
2019-02-18T04:22:38.029Z,61.70
2019-02-18T04:23:51.250Z,61.40
2019-02-18T04:25:05.741Z,62.00
2019-02-18T04:26:18.955Z,61.90
2019-02-18T04:27:32.166Z,62.70
2019-02-18T04:28:45.383Z,62.70
2019-02-18T04:29:58.602Z,62.10
2019-02-18T04:31:11.862Z,62.60
2019-02-18T04:32:25.092Z,62.60
2019-02-18T04:33:38.309Z,62.30
2019-02-18T04:34:51.553Z,62.50
2019-02-18T04:36:04.886Z,62.20
2019-02-18T04:37:18.085Z,63.00
2019-02-18T04:38:31.318Z,63.00
2019-02-18T04:39:44.547Z,63.00
2019-02-18T04:40:57.768Z,63.30
2019-02-18T04:42:11.019Z,64.00
2019-02-18T04:43:24.250Z,64.50
2019-02-18T04:44:37.479Z,63.90
2019-02-18T04:45:51.795Z,64.20
2019-02-18T04:47:05.047Z,64.00
2019-02-18T04:48:18.265Z,64.00
2019-02-18T04:49:31.482Z,63.70
2019-02-18T04:50:44.708Z,63.90
2019-02-18T04:51:57.925Z,63.60
2019-02-18T04:53:11.184Z,64.00
2019-02-18T04:54:24.407Z,63.50
2019-02-18T04:55:38.350Z,63.30
2019-02-18T04:56:51.663Z,63.60
2019-02-18T04:58:06.210Z,63.70
2019-02-18T04:59:19.599Z,64.00
2019-02-18T05:00:32.823Z,64.00
2019-02-18T05:01:46.052Z,64.20
2019-02-18T05:02:59.274Z,63.90
2019-02-18T05:04:14.189Z,64.00
2019-02-18T05:05:27.502Z,63.80
2019-02-18T05:06:40.746Z,64.00
2019-02-18T05:07:54.042Z,64.40
2019-02-18T05:09:07.265Z,65.00
2019-02-18T05:10:22.118Z,65.40
2019-02-18T05:11:35.398Z,65.40
2019-02-18T05:12:48.638Z,65.90
2019-02-18T05:14:01.853Z,65.80
2019-02-18T05:15:15.066Z,65.50
2019-02-18T05:16:28.290Z,65.40
2019-02-18T05:17:41.519Z,65.20
2019-02-18T05:18:54.753Z,65.00
2019-02-18T05:20:08.612Z,65.00
2019-02-18T05:21:21.841Z,65.10
2019-02-18T05:22:35.059Z,65.00
2019-02-18T05:23:48.298Z,65.60
2019-02-18T05:25:01.524Z,65.60
2019-02-18T05:26:14.771Z,65.50
2019-02-18T05:27:33.256Z,65.60
2019-02-18T05:28:42.987Z,65.70
2019-02-18T05:29:56.213Z,65.70
2019-02-18T05:31:09.451Z,66.20
2019-02-18T05:32:22.666Z,66.40
2019-02-18T05:33:35.890Z,66.20
2019-02-18T05:34:49.823Z,65.60
2019-02-18T05:36:03.031Z,65.60
2019-02-18T05:37:16.264Z,65.70
2019-02-18T05:38:29.495Z,66.30
2019-02-18T05:39:42.717Z,67.90
2019-02-18T05:40:55.950Z,66.70
2019-02-18T05:42:09.186Z,66.40
2019-02-18T05:43:22.411Z,65.00
2019-02-18T05:44:35.697Z,65.00
2019-02-18T05:45:49.394Z,65.10
2019-02-18T05:47:02.619Z,64.30
2019-02-18T05:48:16.074Z,63.30
2019-02-18T05:49:29.316Z,62.70
2019-02-18T05:50:42.540Z,62.70
2019-02-18T05:51:55.771Z,62.80
2019-02-18T05:53:08.993Z,62.90
2019-02-18T05:54:22.231Z,63.10
2019-02-18T05:55:35.448Z,62.40
2019-02-18T05:56:48.762Z,62.40
2019-02-18T05:58:02.002Z,63.70
2019-02-18T05:59:15.245Z,64.20
2019-02-18T06:00:28.544Z,65.10
2019-02-18T06:01:41.809Z,65.40
2019-02-18T06:02:55.060Z,64.70
2019-02-18T06:04:08.292Z,64.90
2019-02-18T06:05:21.522Z,65.50
2019-02-18T06:06:34.823Z,65.70
2019-02-18T06:07:48.049Z,66.00
2019-02-18T06:09:01.284Z,66.30
2019-02-18T06:10:16.993Z,66.70
2019-02-18T06:11:29.447Z,66.80
2019-02-18T06:12:42.670Z,67.00
2019-02-18T06:13:55.910Z,66.90
2019-02-18T06:15:09.816Z,66.10
2019-02-18T06:16:23.273Z,65.20
2019-02-18T06:17:36.499Z,64.90
2019-02-18T06:18:50.290Z,65.20
2019-02-18T06:20:04.155Z,65.40
2019-02-18T06:21:17.378Z,65.50
2019-02-18T06:22:30.666Z,66.40
2019-02-18T06:23:44.118Z,68.50
2019-02-18T06:24:57.357Z,67.70
2019-02-18T06:26:11.619Z,67.50
2019-02-18T06:27:24.914Z,68.10
2019-02-18T06:28:38.133Z,67.50
2019-02-18T06:29:51.372Z,68.10
2019-02-18T06:31:04.606Z,67.20
2019-02-18T06:32:17.837Z,66.90
2019-02-18T06:33:31.062Z,65.80
2019-02-18T06:34:44.294Z,66.70
2019-02-18T06:35:57.590Z,66.90
2019-02-18T06:37:10.818Z,67.20
2019-02-18T06:38:24.111Z,66.40
2019-02-18T06:39:41.402Z,66.00
2019-02-18T06:40:52.286Z,66.00
2019-02-18T06:42:05.512Z,66.30
2019-02-18T06:43:18.745Z,65.50
2019-02-18T06:44:36.318Z,68.30
2019-02-18T06:45:56.847Z,68.50
2019-02-18T06:47:10.449Z,66.10
2019-02-18T06:48:25.309Z,67.30
2019-02-18T06:49:38.549Z,66.30
2019-02-18T06:50:51.779Z,65.10
2019-02-18T06:52:05.003Z,64.20
2019-02-18T06:53:18.233Z,63.60
2019-02-18T06:54:31.466Z,63.80
2019-02-18T06:55:44.701Z,63.50
2019-02-18T06:57:08.495Z,62.00
2019-02-18T06:58:25.769Z,61.80
2019-02-18T06:59:40.633Z,61.70
2019-02-18T07:01:07.534Z,61.90
2019-02-18T07:02:28.099Z,62.30
2019-02-18T07:03:42.976Z,61.20
2019-02-18T07:05:00.541Z,61.20
2019-02-18T07:06:15.422Z,61.40
2019-02-18T07:07:33.254Z,60.60
2019-02-18T07:09:04.104Z,61.00
2019-02-18T07:10:25.273Z,61.50
2019-02-18T07:11:40.227Z,60.70
2019-02-18T07:12:53.442Z,60.60
2019-02-18T07:14:06.664Z,60.50
2019-02-18T07:15:20.372Z,60.00
2019-02-18T07:16:33.578Z,59.30
2019-02-18T07:17:46.809Z,59.30
2019-02-18T07:19:00.033Z,59.10
2019-02-18T07:20:13.265Z,59.10
2019-02-18T07:21:26.491Z,59.10
2019-02-18T07:22:39.719Z,59.40
2019-02-18T07:23:52.957Z,59.70
2019-02-18T07:25:08.177Z,59.50
2019-02-18T07:26:21.398Z,58.10
2019-02-18T07:27:34.628Z,58.10
2019-02-18T07:28:47.859Z,58.80
2019-02-18T07:30:01.086Z,58.80
2019-02-18T07:31:14.305Z,58.40
2019-02-18T07:32:27.538Z,58.20
2019-02-18T07:33:40.774Z,57.70
2019-02-18T07:34:54.025Z,57.60
2019-02-18T07:36:07.306Z,57.50
2019-02-18T07:37:20.530Z,57.30
2019-02-18T07:38:33.759Z,57.60
2019-02-18T07:39:46.996Z,57.30
2019-02-18T07:41:00.214Z,56.70
2019-02-18T07:42:13.434Z,56.40
2019-02-18T07:43:26.658Z,56.10
2019-02-18T07:44:39.901Z,56.00
2019-02-18T07:45:53.204Z,55.90
2019-02-18T07:47:06.426Z,55.60
2019-02-18T07:48:19.661Z,55.20
2019-02-18T07:49:32.886Z,55.20
2019-02-18T07:50:46.131Z,54.80
2019-02-18T07:51:59.342Z,54.40
2019-02-18T07:53:12.570Z,54.00
2019-02-18T07:54:25.792Z,53.80
2019-02-18T07:55:39.266Z,53.60
2019-02-18T07:56:52.494Z,52.90
2019-02-18T07:58:05.717Z,52.50
2019-02-18T07:59:18.950Z,52.70
2019-02-18T08:00:32.175Z,52.40
2019-02-18T08:01:45.394Z,52.70
2019-02-18T08:02:58.624Z,52.70
2019-02-18T08:04:11.867Z,52.10
2019-02-18T08:05:25.086Z,52.10
2019-02-18T08:06:38.322Z,52.00
2019-02-18T08:07:51.795Z,51.40
2019-02-18T08:09:06.234Z,51.60
2019-02-18T08:10:19.447Z,52.10
2019-02-18T08:11:32.671Z,51.50
2019-02-18T08:12:45.906Z,50.90
2019-02-18T08:13:59.137Z,50.80
2019-02-18T08:15:13.986Z,50.60
2019-02-18T08:16:27.219Z,50.00
2019-02-18T08:17:40.448Z,50.00
2019-02-18T08:18:55.430Z,50.20
2019-02-18T08:20:10.546Z,49.90
2019-02-18T08:21:23.773Z,50.10
2019-02-18T08:22:39.208Z,50.70
2019-02-18T08:23:59.582Z,50.30
2019-02-18T08:25:10.254Z,49.70
2019-02-18T08:26:25.129Z,50.40
2019-02-18T08:27:38.366Z,50.40
2019-02-18T08:28:51.581Z,50.20
2019-02-18T08:30:09.116Z,50.10
2019-02-18T08:31:22.350Z,49.90
2019-02-18T08:32:35.574Z,49.80
2019-02-18T08:33:48.806Z,49.90
2019-02-18T08:35:02.030Z,49.60
2019-02-18T08:36:18.165Z,49.30
2019-02-18T08:37:31.410Z,49.60
2019-02-18T08:38:45.113Z,49.40
2019-02-18T08:39:58.341Z,49.30
2019-02-18T08:41:11.560Z,49.30
2019-02-18T08:42:24.781Z,49.10
2019-02-18T08:43:38.032Z,48.70
2019-02-18T08:44:51.566Z,48.80
2019-02-18T08:46:04.793Z,48.60
2019-02-18T08:47:18.019Z,47.60
2019-02-18T08:48:31.249Z,47.50
2019-02-18T08:49:44.481Z,47.80
2019-02-18T08:50:59.813Z,47.40
2019-02-18T08:52:13.091Z,47.00
2019-02-18T08:53:26.318Z,47.40
2019-02-18T08:54:42.663Z,47.40
2019-02-18T08:55:55.893Z,47.10
2019-02-18T08:57:09.110Z,46.80
2019-02-18T08:58:22.365Z,46.40
2019-02-18T08:59:35.603Z,46.30
2019-02-18T09:00:48.823Z,45.90
2019-02-18T09:02:02.058Z,45.60
2019-02-18T09:03:15.274Z,45.00
2019-02-18T09:04:28.567Z,44.30
2019-02-18T09:05:41.792Z,44.10
2019-02-18T09:06:56.261Z,44.10
2019-02-18T09:08:09.482Z,44.10
2019-02-18T09:09:22.715Z,43.80
2019-02-18T09:10:36.185Z,43.30
2019-02-18T09:11:49.409Z,44.00
2019-02-18T09:13:02.666Z,43.40
2019-02-18T09:14:15.921Z,42.70
2019-02-18T09:15:29.143Z,42.50
2019-02-18T09:16:42.395Z,42.40
2019-02-18T09:17:55.610Z,42.40
2019-02-18T09:19:08.846Z,42.30
2019-02-18T09:20:22.069Z,42.30
2019-02-18T09:21:35.561Z,42.20
2019-02-18T09:22:53.077Z,41.70
2019-02-18T09:24:13.982Z,41.50
2019-02-18T09:25:31.546Z,41.60
2019-02-18T09:26:44.789Z,41.20
2019-02-18T09:27:58.018Z,41.10
2019-02-18T09:29:11.246Z,41.70
2019-02-18T09:30:26.130Z,41.10
2019-02-18T09:31:39.371Z,41.00
2019-02-18T09:32:52.600Z,40.00
2019-02-18T09:34:05.822Z,40.80
2019-02-18T09:35:19.045Z,39.90
2019-02-18T09:36:32.741Z,39.10
2019-02-18T09:37:45.980Z,38.80
2019-02-18T09:38:59.197Z,38.80
2019-02-18T09:40:12.431Z,39.50
2019-02-18T09:41:25.668Z,39.20
2019-02-18T09:42:38.895Z,38.70
2019-02-18T09:43:52.123Z,38.00
2019-02-18T09:45:08.477Z,37.50
2019-02-18T09:46:21.705Z,37.80
2019-02-18T09:47:34.946Z,38.30
2019-02-18T09:48:49.358Z,37.50
2019-02-18T09:50:02.679Z,37.50
2019-02-18T09:51:15.902Z,37.70
2019-02-18T09:52:29.121Z,37.20
2019-02-18T09:53:42.362Z,35.10
2019-02-18T09:54:55.596Z,34.60
2019-02-18T09:56:08.813Z,34.60
2019-02-18T09:57:22.072Z,34.80
2019-02-18T09:58:35.350Z,34.60
2019-02-18T09:59:48.810Z,34.60
2019-02-18T10:01:02.086Z,35.00
2019-02-18T10:02:15.334Z,35.00
2019-02-18T10:03:32.154Z,34.10
2019-02-18T10:04:44.232Z,33.50
2019-02-18T10:05:57.462Z,33.50
2019-02-18T10:07:10.685Z,33.70
2019-02-18T10:08:23.923Z,33.50
2019-02-18T10:09:37.158Z,33.10
2019-02-18T10:10:55.920Z,33.50
2019-02-18T10:12:05.334Z,34.40
2019-02-18T10:13:18.573Z,34.50
2019-02-18T10:14:32.265Z,33.90
2019-02-18T10:15:45.497Z,34.60
2019-02-18T10:16:58.963Z,33.30
2019-02-18T10:18:12.193Z,33.80
2019-02-18T10:19:25.417Z,33.10
2019-02-18T10:20:38.658Z,33.40
2019-02-18T10:21:51.890Z,33.30
2019-02-18T10:23:05.122Z,33.60
2019-02-18T10:24:18.346Z,33.20
2019-02-18T10:25:31.581Z,33.10
2019-02-18T10:26:44.810Z,33.10
2019-02-18T10:27:58.031Z,34.30
2019-02-18T10:29:11.249Z,34.30
2019-02-18T10:30:24.493Z,34.30
2019-02-18T10:31:37.729Z,34.60
2019-02-18T10:32:50.962Z,33.00
2019-02-18T10:34:04.207Z,32.40
2019-02-18T10:35:17.436Z,32.20
2019-02-18T10:36:30.734Z,31.90
2019-02-18T10:37:43.967Z,31.70
2019-02-18T10:38:57.189Z,31.50
2019-02-18T10:40:10.671Z,30.20
2019-02-18T10:41:23.898Z,30.00
2019-02-18T10:42:37.122Z,30.90
2019-02-18T10:43:50.354Z,30.00
2019-02-18T10:45:04.357Z,29.60
2019-02-18T10:46:17.596Z,30.10
2019-02-18T10:47:30.820Z,30.40
2019-02-18T10:48:44.046Z,30.00
2019-02-18T10:49:57.277Z,30.00
2019-02-18T10:51:10.517Z,30.50
2019-02-18T10:52:23.978Z,30.00
2019-02-18T10:53:37.200Z,30.00
2019-02-18T10:54:50.509Z,31.10
2019-02-18T10:56:03.840Z,30.20
2019-02-18T10:57:17.062Z,30.30
2019-02-18T10:58:30.300Z,29.90
2019-02-18T10:59:44.800Z,29.50
2019-02-18T11:00:58.316Z,30.40
2019-02-18T11:02:11.625Z,30.30
2019-02-18T11:03:24.852Z,30.00
2019-02-18T11:04:38.117Z,30.30
2019-02-18T11:05:52.070Z,29.60
2019-02-18T11:07:05.316Z,29.70
2019-02-18T11:08:19.577Z,29.60
2019-02-18T11:09:32.813Z,29.80
2019-02-18T11:10:46.037Z,29.50
2019-02-18T11:11:59.281Z,29.20
2019-02-18T11:13:12.521Z,29.40
2019-02-18T11:14:25.749Z,29.40
2019-02-18T11:15:39.209Z,29.00
2019-02-18T11:16:52.425Z,28.80
2019-02-18T11:18:05.672Z,28.80
2019-02-18T11:19:18.909Z,28.50
2019-02-18T11:20:32.133Z,28.50
2019-02-18T11:21:45.360Z,28.00
2019-02-18T11:22:58.589Z,27.20
2019-02-18T11:24:11.822Z,27.20
2019-02-18T11:25:25.045Z,28.00
2019-02-18T11:26:38.272Z,27.30
2019-02-18T11:27:51.493Z,27.90
2019-02-18T11:29:05.002Z,27.50
2019-02-18T11:30:18.894Z,28.00
2019-02-18T11:31:32.119Z,27.30
2019-02-18T11:32:45.345Z,28.00
2019-02-18T11:33:58.586Z,28.40
2019-02-18T11:35:11.814Z,28.00
2019-02-18T11:36:25.045Z,27.90
2019-02-18T11:37:38.280Z,27.80
2019-02-18T11:38:51.513Z,27.90
2019-02-18T11:40:08.006Z,27.00
2019-02-18T11:41:27.479Z,27.20
2019-02-18T11:42:37.456Z,26.90
2019-02-18T11:43:50.890Z,26.90
2019-02-18T11:45:05.941Z,26.80
2019-02-18T11:46:19.170Z,26.20
2019-02-18T11:47:32.446Z,26.70
2019-02-18T11:48:45.682Z,26.10
2019-02-18T11:49:58.915Z,26.10
2019-02-18T11:51:12.139Z,25.20
2019-02-18T11:52:25.364Z,24.80
2019-02-18T11:53:38.583Z,25.50
2019-02-18T11:54:51.831Z,24.40
2019-02-18T11:56:05.067Z,24.30
2019-02-18T11:57:18.289Z,23.30
2019-02-18T11:58:31.518Z,21.80
2019-02-18T11:59:44.745Z,21.60
2019-02-18T12:00:57.976Z,21.20
2019-02-18T12:02:11.490Z,20.80
2019-02-18T12:03:24.702Z,18.50
2019-02-18T12:04:37.926Z,17.40
2019-02-18T12:05:51.181Z,16.10
2019-02-18T12:07:04.401Z,15.70
2019-02-18T12:08:17.631Z,13.70
2019-02-18T12:09:30.857Z,12.50
2019-02-18T12:10:44.092Z,12.20
2019-02-18T12:11:57.316Z,10.90
2019-02-18T12:13:10.616Z,11.00
2019-02-18T12:14:23.836Z,10.60
2019-02-18T12:15:37.399Z,9.70
2019-02-18T12:16:50.656Z,10.10
2019-02-18T12:18:03.885Z,10.00
2019-02-18T12:19:17.098Z,9.40
2019-02-18T12:20:30.325Z,9.70
2019-02-18T12:21:43.554Z,9.80
2019-02-18T12:22:57.058Z,9.50
2019-02-18T12:24:10.696Z,8.50
2019-02-18T12:25:23.917Z,9.10
2019-02-18T12:26:37.170Z,9.10
2019-02-18T12:27:50.393Z,9.30
2019-02-18T12:29:03.618Z,9.30
2019-02-18T12:30:17.665Z,9.10
2019-02-18T12:31:31.194Z,9.20
2019-02-18T12:32:44.431Z,9.20
2019-02-18T12:33:57.747Z,9.00
2019-02-18T12:35:11.042Z,8.80
2019-02-18T12:36:24.282Z,9.20
2019-02-18T12:37:37.521Z,9.20
2019-02-18T12:38:50.748Z,9.50
2019-02-18T12:40:06.199Z,9.30
2019-02-18T12:41:19.697Z,9.30
2019-02-18T12:42:33.001Z,8.80
2019-02-18T12:43:46.287Z,8.90
2019-02-18T12:44:59.585Z,8.80
2019-02-18T12:46:15.700Z,8.90
2019-02-18T12:47:27.057Z,7.90
2019-02-18T12:48:40.281Z,7.90
2019-02-18T12:49:55.138Z,8.40
2019-02-18T12:51:08.364Z,8.60
2019-02-18T12:52:21.605Z,9.10
2019-02-18T12:53:34.817Z,9.30
2019-02-18T12:54:48.141Z,8.90
2019-02-18T12:56:01.430Z,8.70
2019-02-18T12:57:14.656Z,7.70
2019-02-18T12:58:28.132Z,8.00
2019-02-18T12:59:41.449Z,7.60
2019-02-18T13:00:54.762Z,8.40
2019-02-18T13:02:08.365Z,8.70
2019-02-18T13:03:21.780Z,8.70
2019-02-18T13:04:35.101Z,8.80
2019-02-18T13:05:48.645Z,9.00
2019-02-18T13:07:01.943Z,9.00
2019-02-18T13:08:15.242Z,9.30
2019-02-18T13:09:28.613Z,9.50
2019-02-18T13:10:41.850Z,9.20
2019-02-18T13:11:58.959Z,9.20
2019-02-18T13:13:10.505Z,10.00
2019-02-18T13:14:23.817Z,10.00
2019-02-18T13:15:37.121Z,9.80
2019-02-18T13:16:50.349Z,9.60
2019-02-18T13:19:16.154Z,9.70
2019-02-18T13:20:28.694Z,9.60
2019-02-18T13:21:41.261Z,10.00
2019-02-18T13:22:53.877Z,10.00
2019-02-18T13:24:07.182Z,10.40
2019-02-18T13:25:20.699Z,10.20
2019-02-18T13:26:33.509Z,9.20
2019-02-18T13:27:46.048Z,9.40
2019-02-18T13:28:58.586Z,10.10
2019-02-18T13:30:16.442Z,10.90
2019-02-18T13:31:29.754Z,11.00
2019-02-18T13:32:42.988Z,10.70
2019-02-18T13:33:56.226Z,10.90
2019-02-18T13:35:09.455Z,10.50
2019-02-18T13:36:22.747Z,9.90
2019-02-18T13:37:36.230Z,10.20
2019-02-18T13:38:49.464Z,10.50
2019-02-18T13:40:03.910Z,10.00
2019-02-18T13:41:17.710Z,9.90
2019-02-18T13:42:30.939Z,9.20
2019-02-18T13:43:44.548Z,9.40
2019-02-18T13:44:57.949Z,9.40
2019-02-18T13:46:11.170Z,9.50
2019-02-18T13:47:24.386Z,9.10
2019-02-18T13:48:37.614Z,9.50
2019-02-18T13:49:51.092Z,9.80
2019-02-18T13:51:04.322Z,9.80
2019-02-18T13:52:17.546Z,9.60
2019-02-18T13:53:30.789Z,10.10
2019-02-18T13:54:44.035Z,9.90
2019-02-18T13:55:57.250Z,9.30
2019-02-18T13:57:10.545Z,9.40
2019-02-18T13:58:23.776Z,9.00
2019-02-18T13:59:37.089Z,9.40
2019-02-18T14:00:50.878Z,9.40
2019-02-18T14:02:04.096Z,9.60
2019-02-18T14:03:17.608Z,9.30
2019-02-18T14:04:30.905Z,9.50
2019-02-18T14:05:44.166Z,9.20
2019-02-18T14:06:57.393Z,9.40
2019-02-18T14:08:10.617Z,9.50
2019-02-18T14:09:23.846Z,9.60
2019-02-18T14:10:37.082Z,9.50
2019-02-18T14:11:50.309Z,9.60
2019-02-18T14:13:03.530Z,9.60
2019-02-18T14:14:16.753Z,8.90
2019-02-18T14:15:29.986Z,9.30
2019-02-18T14:16:43.221Z,9.10
2019-02-18T14:17:56.443Z,9.00
2019-02-18T14:19:10.377Z,8.70
2019-02-18T14:20:23.594Z,9.40
2019-02-18T14:21:36.823Z,8.90
2019-02-18T14:22:50.446Z,9.10
2019-02-18T14:24:03.670Z,9.10
2019-02-18T14:25:17.611Z,8.90
2019-02-18T14:26:30.146Z,9.70
2019-02-18T14:27:42.687Z,8.70
2019-02-18T14:28:55.298Z,9.50
2019-02-18T14:30:09.413Z,9.90
2019-02-18T14:31:21.949Z,10.30
2019-02-18T14:32:34.554Z,11.30
2019-02-18T14:33:47.115Z,10.50
2019-02-18T14:34:59.662Z,10.50
2019-02-18T14:36:12.273Z,10.80
2019-02-18T14:37:24.812Z,10.60
2019-02-18T14:38:37.352Z,10.60
2019-02-18T14:39:50.005Z,10.90
2019-02-18T14:41:02.585Z,10.80
2019-02-18T14:42:15.126Z,11.10
2019-02-18T14:43:27.945Z,11.80
2019-02-18T14:44:40.800Z,11.80
2019-02-18T14:45:53.354Z,11.60
2019-02-18T14:47:05.890Z,12.10
2019-02-18T14:48:18.461Z,12.10
2019-02-18T14:49:31.065Z,12.60
2019-02-18T14:50:43.618Z,12.70
2019-02-18T14:51:57.191Z,13.40
2019-02-18T14:53:09.808Z,13.10
2019-02-18T14:54:22.364Z,12.80
2019-02-18T14:55:34.907Z,13.40
2019-02-18T14:56:47.458Z,13.60
2019-02-18T14:58:00.004Z,13.60
2019-02-18T14:59:12.551Z,13.20
2019-02-18T15:00:25.092Z,13.20
2019-02-18T15:01:37.634Z,13.10
2019-02-18T15:02:51.149Z,13.30
2019-02-18T15:04:04.057Z,13.50
2019-02-18T15:05:16.969Z,13.50
2019-02-18T15:06:29.820Z,13.80
2019-02-18T15:07:43.133Z,13.50
2019-02-18T15:08:55.754Z,13.90
2019-02-18T15:10:09.266Z,13.80
2019-02-18T15:11:21.809Z,14.20
2019-02-18T15:12:34.372Z,14.30
2019-02-18T15:13:46.992Z,14.30
2019-02-18T15:14:59.607Z,14.60
2019-02-18T15:16:12.576Z,14.30
2019-02-18T15:17:25.367Z,14.30
2019-02-18T15:18:37.985Z,14.30
2019-02-18T15:19:50.523Z,14.00
2019-02-18T15:21:03.078Z,14.30
2019-02-18T15:22:15.689Z,14.50
2019-02-18T15:23:28.232Z,14.70
2019-02-18T15:24:40.783Z,15.00
2019-02-18T15:25:54.006Z,15.20
2019-02-18T15:27:10.506Z,15.10
2019-02-18T15:28:23.742Z,15.40
2019-02-18T15:29:36.965Z,15.50
2019-02-18T15:30:50.199Z,15.60
2019-02-18T15:32:03.435Z,15.60
2019-02-18T15:33:16.672Z,16.30
2019-02-18T15:34:29.916Z,16.70
2019-02-18T15:35:43.141Z,17.00
2019-02-18T15:36:56.378Z,17.20
2019-02-18T15:38:09.606Z,16.70
2019-02-18T15:39:22.837Z,16.90
2019-02-18T15:40:36.138Z,17.90
2019-02-18T15:41:49.370Z,17.60
2019-02-18T15:43:02.854Z,17.90
2019-02-18T15:44:16.083Z,18.20
2019-02-18T15:45:29.581Z,18.20
2019-02-18T15:46:42.822Z,18.30
2019-02-18T15:48:01.508Z,18.50
2019-02-18T15:49:11.782Z,18.40
2019-02-18T15:50:25.012Z,18.60
2019-02-18T15:51:38.255Z,18.90
2019-02-18T15:52:51.722Z,19.30